createdAt,value
2022-09-28T00:02:10.613Z,10.89
2022-09-28T00:05:12.740Z,10.73
2022-09-28T00:08:14.180Z,10.92
2022-09-28T00:11:17.614Z,10.92
2022-09-28T00:14:19.853Z,10.90
2022-09-28T00:17:22.713Z,10.92
2022-09-28T00:20:24.026Z,11.00
2022-09-28T00:23:25.448Z,10.98
2022-09-28T00:26:32.058Z,11.05
2022-09-28T00:29:36.371Z,10.98
2022-09-28T00:32:37.911Z,10.92
2022-09-28T00:35:39.470Z,11.01
2022-09-28T00:38:40.929Z,11.02
2022-09-28T00:41:42.741Z,10.88
2022-09-28T00:44:51.377Z,10.94
2022-09-28T00:47:58.340Z,10.90
2022-09-28T00:51:04.706Z,10.81
2022-09-28T00:54:08.237Z,11.02
2022-09-28T00:57:09.789Z,11.08
2022-09-28T01:00:12.046Z,10.94
2022-09-28T01:03:14.582Z,10.96
2022-09-28T01:06:22.957Z,10.93
2022-09-28T01:09:27.257Z,11.02
2022-09-28T01:12:29.469Z,10.85
2022-09-28T01:15:42.824Z,10.89
2022-09-28T01:19:05.328Z,10.89
2022-09-28T01:22:08.432Z,10.99
2022-09-28T01:25:53.794Z,10.97
2022-09-28T01:29:05.622Z,11.01
2022-09-28T01:32:35.466Z,10.99
2022-09-28T01:35:43.708Z,10.97
2022-09-28T01:38:53.203Z,11.08
2022-09-28T01:41:57.535Z,10.99
2022-09-28T01:45:07.356Z,11.02
2022-09-28T01:48:13.325Z,11.09
2022-09-28T01:51:22.098Z,11.12
2022-09-28T01:54:39.253Z,10.96
2022-09-28T01:57:52.981Z,10.88
2022-09-28T02:01:03.578Z,11.03
2022-09-28T02:04:05.204Z,10.91
2022-09-28T02:07:17.155Z,11.05
2022-09-28T02:10:24.714Z,11.13
2022-09-28T02:13:33.942Z,11.12
2022-09-28T02:16:47.676Z,11.18
2022-09-28T02:19:49.184Z,11.13
2022-09-28T02:22:56.826Z,11.25
2022-09-28T02:26:06.589Z,11.24
2022-09-28T02:29:08.265Z,11.21
2022-09-28T02:32:10.802Z,11.29
2022-09-28T02:35:15.296Z,11.33
2022-09-28T02:38:16.825Z,11.33
2022-09-28T02:41:43.195Z,11.32
2022-09-28T02:44:47.549Z,11.28
2022-09-28T02:48:10.773Z,11.36
2022-09-28T02:51:28.269Z,11.32
2022-09-28T02:54:55.446Z,11.23
2022-09-28T02:58:20.159Z,11.23
2022-09-28T03:01:40.006Z,11.27
2022-09-28T03:04:48.884Z,11.25
2022-09-28T03:08:02.112Z,11.18
2022-09-28T03:11:13.750Z,11.18
2022-09-28T03:14:16.159Z,11.19
2022-09-28T03:17:25.308Z,11.29
2022-09-28T03:20:28.431Z,11.22
2022-09-28T03:23:29.912Z,11.17
2022-09-28T03:26:32.361Z,11.08
2022-09-28T03:29:34.521Z,11.18
2022-09-28T03:32:40.552Z,11.23
2022-09-28T03:35:46.643Z,11.25
2022-09-28T03:38:48.180Z,11.16
2022-09-28T03:41:49.612Z,11.15
2022-09-28T03:44:53.319Z,10.96
2022-09-28T03:47:54.728Z,10.94
2022-09-28T03:50:57.704Z,11.13
2022-09-28T03:53:59.178Z,10.93
2022-09-28T03:57:00.833Z,10.94
2022-09-28T04:00:05.373Z,11.05
2022-09-28T04:03:15.056Z,11.13
2022-09-28T04:06:16.656Z,11.08
2022-09-28T04:09:18.127Z,11.04
2022-09-28T04:12:20.017Z,11.15
2022-09-28T04:15:24.295Z,11.20
2022-09-28T04:18:26.343Z,11.05
2022-09-28T04:21:51.007Z,11.13
2022-09-28T04:24:52.453Z,11.05
2022-09-28T04:28:12.588Z,11.06
2022-09-28T04:31:17.713Z,11.06
2022-09-28T04:34:21.525Z,11.08
2022-09-28T04:37:23.887Z,11.10
2022-09-28T04:40:25.403Z,11.13
2022-09-28T04:43:28.208Z,11.11
2022-09-28T04:46:29.730Z,11.19
2022-09-28T04:49:56.957Z,11.20
2022-09-28T04:53:05.980Z,11.17
2022-09-28T04:56:11.538Z,11.20
2022-09-28T04:59:14.526Z,11.22
2022-09-28T05:02:17.551Z,11.17
2022-09-28T05:05:51.015Z,11.28
2022-09-28T05:09:04.882Z,11.20
2022-09-28T05:12:06.443Z,11.22
2022-09-28T05:15:08.060Z,11.21
2022-09-28T05:18:09.483Z,11.26
2022-09-28T05:21:19.551Z,11.23
2022-09-28T05:24:20.996Z,11.22
2022-09-28T05:27:25.938Z,11.18
2022-09-28T05:30:39.336Z,11.23
2022-09-28T05:34:01.007Z,11.21
2022-09-28T05:37:02.785Z,11.28
2022-09-28T05:40:06.005Z,11.30
2022-09-28T05:43:07.563Z,11.35
2022-09-28T05:46:09.062Z,11.35
2022-09-28T05:49:13.689Z,11.32
2022-09-28T05:52:15.234Z,11.31
2022-09-28T05:55:16.990Z,11.30
2022-09-28T05:58:18.545Z,11.17
2022-09-28T06:01:20.287Z,11.18
2022-09-28T06:04:22.447Z,11.23
2022-09-28T06:07:23.948Z,11.27
2022-09-28T06:10:27.116Z,11.30
2022-09-28T06:13:32.100Z,11.32
2022-09-28T06:16:34.817Z,11.28
2022-09-28T06:19:36.488Z,11.33
2022-09-28T06:22:52.896Z,11.38
2022-09-28T06:25:54.387Z,11.37
2022-09-28T06:28:55.859Z,11.42
2022-09-28T06:31:57.293Z,11.38
2022-09-28T06:34:59.294Z,11.44
2022-09-28T06:38:02.166Z,11.40
2022-09-28T06:41:03.978Z,11.46
2022-09-28T06:44:06.877Z,11.54
2022-09-28T06:47:26.707Z,11.57
2022-09-28T06:50:42.635Z,11.60
2022-09-28T06:54:01.112Z,11.55
2022-09-28T06:57:12.486Z,11.61
2022-09-28T07:00:14.603Z,11.59
2022-09-28T07:03:21.815Z,11.52
2022-09-28T07:06:48.000Z,11.63
2022-09-28T07:10:11.256Z,11.57
2022-09-28T07:13:49.435Z,11.53
2022-09-28T07:17:12.345Z,11.55
2022-09-28T07:20:19.398Z,11.59
2022-09-28T07:23:23.344Z,11.55
2022-09-28T07:27:05.546Z,11.46
2022-09-28T07:30:33.623Z,11.44
2022-09-28T07:33:51.129Z,11.56
2022-09-28T07:37:00.315Z,11.53
2022-09-28T07:40:26.181Z,11.54
2022-09-28T07:43:27.967Z,11.71
2022-09-28T07:46:29.416Z,11.75
2022-09-28T07:49:36.051Z,11.70
2022-09-28T07:52:49.564Z,11.84
2022-09-28T07:56:05.643Z,11.89
2022-09-28T07:59:25.569Z,11.90
2022-09-28T08:02:59.793Z,11.81
2022-09-28T08:06:07.451Z,11.69
2022-09-28T08:09:08.935Z,11.84
2022-09-28T08:12:30.632Z,12.04
2022-09-28T08:15:40.080Z,12.16
2022-09-28T08:19:04.499Z,12.23
2022-09-28T08:22:06.105Z,11.97
2022-09-28T08:25:08.469Z,12.10
2022-09-28T08:28:10.038Z,12.16
2022-09-28T08:31:18.660Z,12.24
2022-09-28T08:34:45.044Z,12.18
2022-09-28T08:37:55.840Z,12.22
2022-09-28T08:41:48.705Z,12.24
2022-09-28T08:45:11.910Z,12.14
2022-09-28T08:49:13.417Z,12.16
2022-09-28T08:52:55.547Z,12.19
2022-09-28T08:56:41.091Z,12.20
2022-09-28T09:00:10.980Z,11.92
2022-09-28T09:03:17.909Z,11.90
2022-09-28T09:06:52.929Z,12.13
2022-09-28T09:10:18.501Z,11.95
2022-09-28T09:13:39.657Z,12.00
2022-09-28T09:17:09.044Z,11.98
2022-09-28T09:20:47.529Z,11.75
2022-09-28T09:23:57.032Z,11.85
2022-09-28T09:27:05.777Z,11.96
2022-09-28T09:44:39.092Z,12.28
2022-09-28T09:48:25.085Z,12.23
2022-09-28T09:51:49.304Z,12.12
2022-09-28T09:54:59.576Z,12.19
2022-09-28T09:58:26.399Z,12.37
2022-09-28T10:01:39.090Z,12.45
2022-09-28T10:05:02.610Z,12.00
2022-09-28T10:08:17.705Z,12.22
2022-09-28T10:11:27.310Z,12.27
2022-09-28T10:14:30.992Z,12.08
2022-09-28T10:17:37.294Z,11.91
2022-09-28T10:20:57.516Z,11.90
2022-09-28T10:24:22.738Z,12.05
2022-09-28T10:27:35.909Z,12.19
2022-09-28T10:30:44.579Z,12.37
2022-09-28T10:33:46.127Z,12.47
2022-09-28T10:37:03.252Z,12.11
2022-09-28T10:40:43.783Z,12.55
2022-09-28T10:44:06.029Z,12.83
2022-09-28T10:47:30.437Z,12.98
2022-09-28T10:50:32.413Z,12.96
2022-09-28T10:53:41.751Z,12.90
2022-09-28T10:57:27.939Z,12.93
2022-09-28T11:00:43.359Z,12.35
2022-09-28T11:04:02.552Z,12.65
2022-09-28T11:07:04.718Z,12.79
2022-09-28T11:10:20.125Z,12.70
2022-09-28T11:13:21.625Z,12.51
2022-09-28T11:16:35.862Z,12.50
2022-09-28T11:19:38.539Z,12.64
2022-09-28T11:22:45.581Z,12.64
2022-09-28T11:26:06.764Z,12.89
2022-09-28T11:29:30.900Z,12.76
2022-09-28T11:33:02.396Z,12.84
2022-09-28T11:37:12.389Z,12.80
2022-09-28T11:40:35.445Z,12.98
2022-09-28T11:44:08.275Z,12.96
2022-09-28T11:47:22.508Z,13.07
2022-09-28T11:50:45.869Z,13.11
2022-09-28T11:53:59.532Z,13.06
2022-09-28T11:57:03.939Z,12.67
2022-09-28T12:00:12.089Z,12.73
2022-09-28T12:03:27.044Z,12.91
2022-09-28T12:06:37.429Z,12.88
2022-09-28T12:10:19.655Z,12.88
2022-09-28T12:13:27.421Z,12.81
2022-09-28T12:17:04.996Z,12.95
2022-09-28T12:20:20.619Z,12.79
2022-09-28T12:23:33.206Z,12.98
2022-09-28T12:26:42.539Z,13.24
2022-09-28T12:29:52.232Z,13.23
2022-09-28T12:33:13.251Z,13.45
2022-09-28T12:36:33.134Z,13.29
2022-09-28T12:40:08.017Z,13.04
2022-09-28T12:43:33.371Z,13.35
2022-09-28T12:47:05.478Z,13.47
2022-09-28T12:50:39.135Z,13.37
2022-09-28T12:54:01.771Z,13.16
2022-09-28T12:57:37.961Z,13.37
2022-09-28T13:00:52.333Z,13.36
2022-09-28T13:04:12.783Z,13.56
2022-09-28T13:07:26.390Z,13.60
2022-09-28T13:10:42.104Z,13.72
2022-09-28T13:14:08.185Z,13.60
2022-09-28T13:17:26.282Z,13.30
2022-09-28T13:20:37.875Z,13.38
2022-09-28T13:23:45.150Z,13.39
2022-09-28T13:26:47.828Z,13.23
2022-09-28T13:29:51.111Z,13.29
2022-09-28T13:32:56.417Z,13.10
2022-09-28T13:35:57.820Z,13.04
2022-09-28T13:39:00.706Z,13.00
2022-09-28T13:42:02.681Z,13.01
2022-09-28T13:45:22.657Z,13.17
2022-09-28T13:48:44.303Z,13.27
2022-09-28T13:51:48.712Z,13.03
2022-09-28T13:55:09.033Z,13.08
2022-09-28T13:58:33.558Z,13.21
2022-09-28T14:01:41.366Z,13.15
2022-09-28T14:05:04.002Z,13.09
2022-09-28T14:08:08.353Z,13.22
2022-09-28T14:11:42.449Z,13.15
2022-09-28T14:14:48.447Z,13.11
2022-09-28T14:18:00.980Z,13.11
2022-09-28T14:21:02.476Z,13.18
2022-09-28T14:24:12.101Z,13.28
2022-09-28T14:27:38.767Z,13.27
2022-09-28T14:30:43.269Z,13.18
2022-09-28T14:33:56.782Z,13.18
2022-09-28T14:37:17.396Z,13.13
2022-09-28T14:40:48.681Z,13.05
2022-09-28T14:44:00.315Z,13.15
2022-09-28T14:47:25.611Z,13.39
2022-09-28T14:50:29.298Z,13.39
2022-09-28T14:53:38.735Z,13.55
2022-09-28T14:57:04.024Z,13.46
2022-09-28T15:00:15.093Z,13.42
2022-09-28T15:03:17.266Z,13.39
2022-09-28T15:06:21.557Z,13.29
2022-09-28T15:09:30.576Z,13.26
2022-09-28T15:12:32.131Z,13.21
2022-09-28T15:15:40.041Z,13.19
2022-09-28T15:18:43.828Z,13.32
2022-09-28T15:21:47.661Z,13.20
2022-09-28T15:25:02.372Z,13.20
2022-09-28T15:28:18.414Z,13.13
2022-09-28T15:31:22.409Z,13.10
2022-09-28T15:34:50.862Z,13.09
2022-09-28T15:37:54.860Z,13.17
2022-09-28T15:40:57.347Z,13.16
2022-09-28T15:44:07.145Z,13.18
2022-09-28T15:47:24.845Z,13.15
2022-09-28T15:50:28.930Z,13.09
2022-09-28T15:53:31.236Z,13.00
2022-09-28T15:56:50.094Z,12.99
2022-09-28T15:59:56.852Z,12.97
2022-09-28T16:03:07.379Z,12.93
2022-09-28T16:06:10.793Z,12.95
2022-09-28T16:09:31.505Z,12.89
2022-09-28T16:12:52.188Z,12.92
2022-09-28T16:15:58.061Z,12.92
2022-09-28T16:19:00.982Z,12.89
2022-09-28T16:22:06.266Z,12.86
2022-09-28T16:25:18.029Z,12.89
2022-09-28T16:28:37.568Z,12.88
2022-09-28T16:31:41.429Z,12.78
2022-09-28T16:34:43.185Z,12.72
2022-09-28T16:37:47.604Z,12.69
2022-09-28T16:40:52.698Z,12.70
2022-09-28T16:43:59.094Z,12.64
2022-09-28T16:47:00.750Z,12.51
2022-09-28T16:50:06.327Z,12.39
2022-09-28T16:53:45.096Z,12.46
2022-09-28T16:56:46.619Z,12.44
2022-09-28T16:59:48.018Z,12.27
2022-09-28T17:02:52.762Z,12.31
2022-09-28T17:05:55.171Z,12.34
2022-09-28T17:08:58.540Z,12.31
2022-09-28T17:12:00.063Z,12.26
2022-09-28T17:15:01.487Z,12.09
2022-09-28T17:18:02.953Z,12.06
2022-09-28T17:21:07.051Z,11.95
2022-09-28T17:24:08.457Z,11.89
2022-09-28T17:27:14.826Z,11.82
2022-09-28T17:30:16.941Z,11.82
2022-09-28T17:33:18.599Z,11.59
2022-09-28T17:36:20.371Z,11.58
2022-09-28T17:39:24.819Z,11.44
2022-09-28T17:42:26.233Z,11.30
2022-09-28T17:45:28.604Z,11.26
2022-09-28T17:48:31.826Z,11.35
2022-09-28T17:51:37.575Z,11.25
2022-09-28T17:54:39.016Z,11.25
2022-09-28T17:57:40.793Z,11.29
2022-09-28T18:00:42.898Z,11.44
2022-09-28T18:03:44.611Z,11.22
2022-09-28T18:06:46.066Z,11.02
2022-09-28T18:09:47.452Z,11.01
2022-09-28T18:12:50.117Z,10.96
2022-09-28T18:15:52.973Z,11.14
2022-09-28T18:18:54.799Z,11.14
2022-09-28T18:21:58.117Z,11.08
2022-09-28T18:24:59.525Z,11.01
2022-09-28T18:28:01.165Z,10.96
2022-09-28T18:31:08.360Z,10.88
2022-09-28T18:34:11.048Z,10.89
2022-09-28T18:37:12.835Z,10.96
2022-09-28T18:40:14.299Z,10.89
2022-09-28T18:43:16.613Z,10.89
2022-09-28T18:46:18.262Z,10.96
2022-09-28T18:49:21.133Z,10.69
2022-09-28T18:52:22.502Z,10.99
2022-09-28T18:55:23.939Z,11.02
2022-09-28T18:58:25.794Z,10.96
2022-09-28T19:01:30.503Z,11.05
2022-09-28T19:04:32.428Z,11.17
2022-09-28T19:07:34.519Z,11.18
2022-09-28T19:10:36.488Z,11.13
2022-09-28T19:13:37.896Z,11.08
2022-09-28T19:16:39.359Z,11.09
2022-09-28T19:19:42.566Z,11.08
2022-09-28T19:22:44.983Z,11.09
2022-09-28T19:25:46.376Z,10.99
2022-09-28T19:28:48.534Z,11.06
2022-09-28T19:31:50.053Z,11.03
2022-09-28T19:34:51.591Z,11.08
2022-09-28T19:37:53.668Z,11.13
2022-09-28T19:40:55.969Z,11.21
2022-09-28T19:43:57.315Z,11.14
2022-09-28T19:47:06.820Z,11.08
2022-09-28T19:50:10.197Z,10.99
2022-09-28T19:53:12.332Z,11.11
2022-09-28T19:56:13.756Z,11.03
2022-09-28T19:59:15.850Z,10.95
2022-09-28T20:02:17.252Z,11.00
2022-09-28T20:05:18.894Z,10.97
2022-09-28T20:08:20.580Z,10.84
2022-09-28T20:11:21.989Z,10.98
2022-09-28T20:14:25.838Z,10.87
2022-09-28T20:17:29.645Z,10.85
2022-09-28T20:20:31.019Z,10.86
2022-09-28T20:23:36.117Z,10.92
2022-09-28T20:26:37.840Z,10.86
2022-09-28T20:29:39.397Z,10.78
2022-09-28T20:32:40.809Z,10.79
2022-09-28T20:35:44.239Z,10.70
2022-09-28T20:38:54.107Z,10.50
2022-09-28T20:41:57.539Z,10.42
2022-09-28T20:44:59.142Z,10.34
2022-09-28T20:48:07.112Z,10.33
2022-09-28T20:51:12.072Z,10.37
2022-09-28T20:54:13.539Z,10.43
2022-09-28T20:57:17.823Z,10.58
2022-09-28T21:00:19.355Z,10.50
2022-09-28T21:03:20.944Z,10.51
2022-09-28T21:06:24.659Z,10.59
2022-09-28T21:09:26.053Z,10.64
2022-09-28T21:12:28.612Z,10.58
2022-09-28T21:15:30.107Z,10.74
2022-09-28T21:18:31.649Z,10.85
2022-09-28T21:21:33.076Z,10.90
2022-09-28T21:24:34.514Z,10.90
2022-09-28T21:27:36.442Z,10.87
2022-09-28T21:30:38.087Z,10.80
2022-09-28T21:33:39.555Z,10.82
2022-09-28T21:36:43.423Z,10.91
2022-09-28T21:39:44.926Z,10.90
2022-09-28T21:42:46.915Z,10.92
2022-09-28T21:45:52.404Z,10.94
2022-09-28T21:48:53.891Z,10.84
2022-09-28T21:51:55.317Z,10.83
2022-09-28T21:54:56.877Z,10.64
2022-09-28T21:57:58.346Z,10.61
2022-09-28T22:01:18.149Z,10.58
2022-09-28T22:04:19.956Z,10.51
2022-09-28T22:07:21.534Z,10.57
2022-09-28T22:10:22.944Z,10.62
2022-09-28T22:13:24.374Z,10.56
2022-09-28T22:16:29.248Z,10.57
2022-09-28T22:19:30.816Z,10.44
2022-09-28T22:22:32.502Z,10.47
2022-09-28T22:25:34.215Z,10.43
2022-09-28T22:28:35.726Z,10.51
2022-09-28T22:31:39.725Z,10.50
2022-09-28T22:34:41.575Z,10.42
2022-09-28T22:37:42.979Z,10.26
2022-09-28T22:40:49.119Z,10.32
2022-09-28T22:43:52.919Z,10.17
2022-09-28T22:46:54.431Z,10.05
2022-09-28T22:49:56.235Z,10.15
2022-09-28T22:52:57.622Z,10.24
2022-09-28T22:56:01.272Z,10.16
2022-09-28T22:59:02.858Z,10.03
2022-09-28T23:02:04.373Z,9.96
2022-09-28T23:05:06.907Z,9.94
2022-09-28T23:08:08.296Z,9.94
2022-09-28T23:11:09.985Z,9.98
2022-09-28T23:14:12.068Z,9.92
2022-09-28T23:17:13.585Z,10.02
2022-09-28T23:20:15.089Z,10.21
2022-09-28T23:23:16.480Z,10.23
2022-09-28T23:26:23.686Z,10.27
2022-09-28T23:29:25.103Z,10.12
2022-09-28T23:32:31.136Z,10.20
2022-09-28T23:35:34.294Z,9.98
2022-09-28T23:38:35.672Z,10.06
2022-09-28T23:41:37.559Z,10.07
2022-09-28T23:44:38.960Z,9.98
2022-09-28T23:47:40.344Z,9.98
2022-09-28T23:50:43.165Z,9.99
2022-09-28T23:53:45.260Z,10.06
2022-09-28T23:56:46.675Z,10.11
2022-09-28T23:59:48.102Z,10.21
